createdAt,value
2022-09-22T00:00:40.380Z,0.80
2022-09-22T00:20:40.135Z,1.70
2022-09-22T00:40:39.848Z,1.60
2022-09-22T01:00:39.634Z,0.90
2022-09-22T01:20:39.285Z,0.90
2022-09-22T01:40:39.044Z,1.20
2022-09-22T02:00:38.721Z,1.70
2022-09-22T02:20:38.449Z,1.20
2022-09-22T02:40:38.226Z,1.20
2022-09-22T03:00:37.914Z,1.30
2022-09-22T03:20:37.650Z,1.80
2022-09-22T03:40:37.452Z,1.90
2022-09-22T04:00:37.125Z,1.50
2022-09-22T04:20:36.895Z,2.50
2022-09-22T04:40:36.780Z,2.60
2022-09-22T05:00:36.342Z,2.10
2022-09-22T05:20:36.157Z,2.60
2022-09-22T05:40:35.799Z,4.00
2022-09-22T06:00:35.500Z,7.10
2022-09-22T06:20:35.237Z,5.80
2022-09-22T06:40:35.016Z,5.90
2022-09-22T07:00:34.772Z,5.80
2022-09-22T07:20:34.417Z,11.60
2022-09-22T07:40:34.251Z,6.80
2022-09-22T08:00:33.985Z,5.80
2022-09-22T08:20:33.607Z,5.60
2022-09-22T08:40:33.399Z,4.50
2022-09-22T09:00:33.067Z,3.60
2022-09-22T09:20:32.783Z,3.30
2022-09-22T09:40:32.584Z,2.00
2022-09-22T10:00:32.547Z,3.60
2022-09-22T10:20:31.978Z,2.90
2022-09-22T10:40:31.761Z,4.20
2022-09-22T11:00:33.052Z,2.00
2022-09-22T11:20:31.152Z,2.60
2022-09-22T11:40:30.941Z,1.50
2022-09-22T12:00:30.668Z,0.80
2022-09-22T12:20:30.349Z,1.20
2022-09-22T12:40:30.144Z,1.00
2022-09-22T13:00:32.866Z,0.90
2022-09-22T13:20:29.523Z,1.00
2022-09-22T13:40:29.306Z,2.00
2022-09-22T14:00:28.993Z,2.20
2022-09-22T14:20:28.716Z,1.70
2022-09-22T14:40:28.554Z,0.60
2022-09-22T15:00:28.176Z,0.50
2022-09-22T15:20:27.711Z,1.70
2022-09-22T15:40:27.472Z,1.60
2022-09-22T16:00:27.370Z,1.30
2022-09-22T16:20:27.097Z,0.90
2022-09-22T16:40:26.842Z,1.10
2022-09-22T17:00:26.584Z,3.20
2022-09-22T17:20:26.284Z,5.50
2022-09-22T17:40:26.085Z,2.50
2022-09-22T18:00:25.698Z,3.20
2022-09-22T18:20:25.437Z,4.10
2022-09-22T18:40:25.238Z,4.30
2022-09-22T19:00:24.907Z,3.40
2022-09-22T19:20:24.604Z,3.00
2022-09-22T19:40:24.537Z,3.60
2022-09-22T20:00:24.036Z,3.10
2022-09-22T20:20:23.752Z,2.30
2022-09-22T20:40:23.555Z,3.40
2022-09-22T21:00:23.219Z,4.90
2022-09-22T21:20:22.984Z,5.00
2022-09-22T21:40:22.750Z,5.40
2022-09-22T22:00:48.153Z,3.80
2022-09-22T22:20:22.158Z,4.80
2022-09-22T22:40:22.118Z,3.50
2022-09-22T23:00:21.618Z,3.70
2022-09-22T23:20:21.353Z,3.20
2022-09-22T23:40:21.122Z,3.30
